createdAt,value
2017-10-05T00:01:54.509Z,12.90
2017-10-05T00:04:22.829Z,12.90
2017-10-05T00:06:51.148Z,12.90
2017-10-05T00:09:19.514Z,12.90
2017-10-05T00:11:48.582Z,12.90
2017-10-05T00:14:16.890Z,12.90
2017-10-05T00:16:45.990Z,12.90
2017-10-05T00:19:15.073Z,12.80
2017-10-05T00:21:43.387Z,12.80
2017-10-05T00:24:11.704Z,12.80
2017-10-05T00:26:40.030Z,12.80
2017-10-05T00:29:09.129Z,12.80
2017-10-05T00:31:38.269Z,12.80
2017-10-05T00:34:06.648Z,12.70
2017-10-05T00:36:34.964Z,12.80
2017-10-05T00:39:03.299Z,12.70
2017-10-05T00:41:31.591Z,12.70
2017-10-05T00:43:59.904Z,12.70
2017-10-05T00:46:29.724Z,12.70
2017-10-05T00:48:59.560Z,12.70
2017-10-05T00:51:28.627Z,12.60
2017-10-05T00:53:57.026Z,12.60
2017-10-05T00:56:25.474Z,12.70
2017-10-05T00:58:53.779Z,12.70
2017-10-05T01:01:22.104Z,12.70
2017-10-05T01:03:50.410Z,12.70
2017-10-05T01:06:18.716Z,12.70
2017-10-05T01:08:47.044Z,12.70
2017-10-05T01:11:16.109Z,12.80
2017-10-05T01:13:44.408Z,12.70
2017-10-05T01:16:13.494Z,12.70
2017-10-05T01:18:41.804Z,12.70
2017-10-05T01:21:10.868Z,12.70
2017-10-05T01:23:39.200Z,12.70
2017-10-05T01:26:07.508Z,12.70
2017-10-05T01:28:35.852Z,12.70
2017-10-05T01:31:04.186Z,12.70
2017-10-05T01:33:32.495Z,12.70
2017-10-05T01:36:01.621Z,12.70
2017-10-05T01:38:29.963Z,12.70
2017-10-05T01:40:59.082Z,12.70
2017-10-05T01:43:28.227Z,12.70
2017-10-05T01:45:57.254Z,12.70
2017-10-05T01:48:25.699Z,12.70
2017-10-05T01:50:54.020Z,12.80
2017-10-05T01:53:22.332Z,12.80
2017-10-05T01:55:50.668Z,12.80
2017-10-05T01:58:18.968Z,12.80
2017-10-05T02:00:47.276Z,12.80
2017-10-05T02:03:15.612Z,12.80
2017-10-05T02:05:43.921Z,12.80
2017-10-05T02:08:13.008Z,12.80
2017-10-05T02:10:41.320Z,12.80
2017-10-05T02:13:09.636Z,12.90
2017-10-05T02:15:38.758Z,12.90
2017-10-05T02:18:07.055Z,12.90
2017-10-05T02:20:36.152Z,12.90
2017-10-05T02:23:05.244Z,12.90
2017-10-05T02:25:33.625Z,12.90
2017-10-05T02:28:02.650Z,12.90
2017-10-05T02:30:30.960Z,12.90
2017-10-05T02:32:59.296Z,12.90
2017-10-05T02:35:28.367Z,12.90
2017-10-05T02:37:56.666Z,13.00
2017-10-05T02:40:25.754Z,13.00
2017-10-05T02:42:54.091Z,13.00
2017-10-05T02:45:22.444Z,13.00
2017-10-05T02:47:51.524Z,13.00
2017-10-05T02:50:19.840Z,13.00
2017-10-05T02:52:48.263Z,13.00
2017-10-05T02:55:17.287Z,13.10
2017-10-05T02:57:46.365Z,13.10
2017-10-05T03:00:14.679Z,13.10
2017-10-05T03:02:43.748Z,13.10
2017-10-05T03:05:12.101Z,13.10
2017-10-05T03:07:40.412Z,13.10
2017-10-05T03:10:08.729Z,13.10
2017-10-05T03:12:37.062Z,13.20
2017-10-05T03:15:05.390Z,13.20
2017-10-05T03:17:34.478Z,13.20
2017-10-05T03:20:03.603Z,13.30
2017-10-05T03:22:32.064Z,13.30
2017-10-05T03:25:01.160Z,13.30
2017-10-05T03:27:30.379Z,13.30
2017-10-05T03:29:58.762Z,13.30
2017-10-05T03:32:27.099Z,13.30
2017-10-05T03:34:55.425Z,13.30
2017-10-05T03:37:23.735Z,13.30
2017-10-05T03:39:52.039Z,13.30
2017-10-05T03:42:20.487Z,13.40
2017-10-05T03:44:48.819Z,13.40
2017-10-05T03:47:17.109Z,13.40
2017-10-05T03:49:46.174Z,13.40
2017-10-05T03:52:14.489Z,13.40
2017-10-05T03:54:43.558Z,13.40
2017-10-05T03:57:11.955Z,13.40
2017-10-05T03:59:40.247Z,13.40
2017-10-05T04:02:09.317Z,13.40
2017-10-05T04:04:37.649Z,13.40
2017-10-05T04:07:05.947Z,13.40
2017-10-05T04:09:34.293Z,13.40
2017-10-05T04:12:03.473Z,13.50
2017-10-05T04:14:32.571Z,13.50
2017-10-05T04:17:00.869Z,13.50
2017-10-05T04:19:29.208Z,13.50
2017-10-05T04:21:57.529Z,13.50
2017-10-05T04:24:26.608Z,13.50
2017-10-05T04:26:54.940Z,13.50
2017-10-05T04:29:23.234Z,13.50
2017-10-05T04:31:51.607Z,13.50
2017-10-05T04:34:19.916Z,13.50
2017-10-05T04:36:48.243Z,13.50
2017-10-05T04:39:17.372Z,13.50
2017-10-05T04:41:45.676Z,13.50
2017-10-05T04:44:13.988Z,13.50
2017-10-05T04:46:42.400Z,13.50
2017-10-05T04:49:10.703Z,13.50
2017-10-05T04:51:39.024Z,13.60
2017-10-05T04:54:07.483Z,13.60
2017-10-05T04:56:35.912Z,13.60
2017-10-05T04:59:04.991Z,13.60
2017-10-05T05:01:33.290Z,13.60
2017-10-05T05:04:02.564Z,13.70
2017-10-05T05:06:30.879Z,13.60
2017-10-05T05:08:59.957Z,13.70
2017-10-05T05:11:28.268Z,13.70
2017-10-05T05:13:56.599Z,13.70
2017-10-05T05:16:24.931Z,13.70
2017-10-05T05:18:53.265Z,13.70
2017-10-05T05:21:21.577Z,13.70
2017-10-05T05:23:50.664Z,13.80
2017-10-05T05:26:18.993Z,13.80
2017-10-05T05:28:47.292Z,13.80
2017-10-05T05:31:15.604Z,13.90
2017-10-05T05:33:43.944Z,13.90
2017-10-05T05:36:12.252Z,13.90
2017-10-05T05:38:40.560Z,13.90
2017-10-05T05:41:09.622Z,14.00
2017-10-05T05:43:37.967Z,13.90
2017-10-05T05:46:06.421Z,14.00
2017-10-05T05:48:35.672Z,14.00
2017-10-05T05:51:04.110Z,14.00
2017-10-05T05:53:33.174Z,14.00
2017-10-05T05:56:01.504Z,14.10
2017-10-05T05:58:29.826Z,14.10
2017-10-05T06:00:58.324Z,14.10
2017-10-05T06:03:26.636Z,14.10
2017-10-05T06:05:55.714Z,14.20
2017-10-05T06:08:24.046Z,14.20
2017-10-05T06:10:52.360Z,14.20
2017-10-05T06:13:20.675Z,14.30
2017-10-05T06:15:48.996Z,14.30
2017-10-05T06:18:17.314Z,14.30
2017-10-05T06:20:45.879Z,14.30
2017-10-05T06:23:14.204Z,14.40
2017-10-05T06:25:42.524Z,14.40
2017-10-05T06:28:10.851Z,14.40
2017-10-05T06:30:39.184Z,14.40
2017-10-05T06:33:07.501Z,14.50
2017-10-05T06:35:35.820Z,14.50
2017-10-05T06:38:04.892Z,14.60
2017-10-05T06:40:33.296Z,14.60
2017-10-05T06:43:02.389Z,14.60
2017-10-05T06:45:31.473Z,14.70
2017-10-05T06:47:59.846Z,14.70
2017-10-05T06:50:28.158Z,14.70
2017-10-05T06:52:57.229Z,14.70
2017-10-05T06:55:25.569Z,14.70
2017-10-05T06:57:53.867Z,14.80
2017-10-05T07:00:22.178Z,14.80
2017-10-05T07:02:50.518Z,14.80
2017-10-05T07:05:18.822Z,14.80
2017-10-05T07:07:47.131Z,14.90
2017-10-05T07:10:15.454Z,14.90
2017-10-05T07:12:43.842Z,15.00
2017-10-05T07:15:12.208Z,15.00
2017-10-05T07:17:40.542Z,15.00
2017-10-05T07:20:08.842Z,15.00
2017-10-05T07:22:37.915Z,15.10
2017-10-05T07:25:06.237Z,15.00
2017-10-05T07:27:34.624Z,15.10
2017-10-05T07:30:03.743Z,15.10
2017-10-05T07:32:32.066Z,15.10
2017-10-05T07:35:00.405Z,15.10
2017-10-05T07:37:28.707Z,15.10
2017-10-05T07:39:57.040Z,15.20
2017-10-05T07:42:26.138Z,15.20
2017-10-05T07:44:55.809Z,15.20
2017-10-05T07:47:24.146Z,15.20
2017-10-05T07:49:52.453Z,15.30
2017-10-05T07:52:20.776Z,15.30
2017-10-05T07:54:49.083Z,15.30
2017-10-05T07:57:17.410Z,15.30
2017-10-05T07:59:45.708Z,15.30
2017-10-05T08:02:14.021Z,15.20
2017-10-05T08:04:43.106Z,15.20
2017-10-05T08:07:11.418Z,15.20
2017-10-05T08:09:39.725Z,15.20
2017-10-05T08:12:08.063Z,15.20
2017-10-05T08:14:37.137Z,15.10
2017-10-05T08:17:06.207Z,15.10
2017-10-05T08:19:35.497Z,15.00
2017-10-05T08:22:04.646Z,15.00
2017-10-05T08:24:32.961Z,15.00
2017-10-05T08:27:01.269Z,15.00
2017-10-05T08:29:29.562Z,15.00
2017-10-05T08:31:57.888Z,14.90
2017-10-05T08:34:26.960Z,14.90
2017-10-05T08:36:55.265Z,14.90
2017-10-05T08:39:24.378Z,14.80
2017-10-05T08:41:52.686Z,14.70
2017-10-05T08:44:20.999Z,14.70
2017-10-05T08:46:49.306Z,14.60
2017-10-05T08:49:18.391Z,14.40
2017-10-05T08:51:47.475Z,14.30
2017-10-05T08:54:15.800Z,14.30
2017-10-05T08:56:44.117Z,14.20
2017-10-05T08:59:12.449Z,14.10
2017-10-05T09:01:41.554Z,14.10
2017-10-05T09:04:10.616Z,14.10
2017-10-05T09:06:38.956Z,14.10
2017-10-05T09:09:07.372Z,14.20
2017-10-05T09:11:35.752Z,14.30
2017-10-05T09:14:04.094Z,14.30
2017-10-05T09:16:32.414Z,14.30
2017-10-05T09:19:00.750Z,14.40
2017-10-05T09:21:29.049Z,14.40
2017-10-05T09:23:57.359Z,14.30
2017-10-05T09:26:25.810Z,14.30
2017-10-05T09:28:54.226Z,14.30
2017-10-05T09:31:22.541Z,14.30
2017-10-05T09:33:51.596Z,14.30
2017-10-05T09:36:19.921Z,14.30
2017-10-05T09:38:49.042Z,14.20
2017-10-05T09:41:17.386Z,14.20
2017-10-05T09:43:45.692Z,14.10
2017-10-05T09:46:14.748Z,14.10
2017-10-05T09:48:43.039Z,14.10
2017-10-05T09:51:11.349Z,14.20
2017-10-05T09:53:40.418Z,14.30
2017-10-05T09:56:09.038Z,14.20
2017-10-05T09:58:38.123Z,14.20
2017-10-05T10:01:07.189Z,14.30
2017-10-05T10:03:35.498Z,14.30
2017-10-05T10:06:04.565Z,14.30
2017-10-05T10:08:32.924Z,14.20
2017-10-05T10:11:01.220Z,14.30
2017-10-05T10:13:29.518Z,14.30
2017-10-05T10:15:57.831Z,14.30
2017-10-05T10:18:26.886Z,14.30
2017-10-05T10:20:55.205Z,14.30
2017-10-05T10:23:24.263Z,14.40
2017-10-05T10:25:52.555Z,14.40
2017-10-05T10:28:20.851Z,14.40
2017-10-05T10:30:49.155Z,14.30
2017-10-05T10:33:18.251Z,14.40
2017-10-05T10:35:47.411Z,14.40
2017-10-05T10:38:15.732Z,14.40
2017-10-05T10:40:44.856Z,14.30
2017-10-05T10:43:13.447Z,14.30
2017-10-05T10:45:41.777Z,14.30
2017-10-05T10:48:10.104Z,14.40
2017-10-05T10:50:38.429Z,14.40
2017-10-05T10:53:07.556Z,14.30
2017-10-05T10:55:36.639Z,14.00
2017-10-05T10:58:04.958Z,14.00
2017-10-05T11:00:33.269Z,13.90
2017-10-05T11:03:01.581Z,13.80
2017-10-05T11:05:29.875Z,13.80
2017-10-05T11:07:58.187Z,13.70
2017-10-05T11:10:26.491Z,13.80
2017-10-05T11:12:54.817Z,13.90
2017-10-05T11:15:23.888Z,14.10
2017-10-05T11:17:52.187Z,14.00
2017-10-05T11:20:20.515Z,14.20
2017-10-05T11:22:48.817Z,14.40
2017-10-05T11:25:17.142Z,14.50
2017-10-05T11:27:45.473Z,14.70
2017-10-05T11:30:13.811Z,14.90
2017-10-05T11:32:42.909Z,15.00
2017-10-05T11:35:11.985Z,14.70
2017-10-05T11:37:40.281Z,14.60
2017-10-05T11:40:09.355Z,14.10
2017-10-05T11:42:37.679Z,14.00
2017-10-05T11:45:05.993Z,13.80
2017-10-05T11:47:35.249Z,13.70
2017-10-05T11:50:04.311Z,13.70
2017-10-05T11:52:32.660Z,13.70
2017-10-05T11:55:00.971Z,13.80
2017-10-05T11:57:30.110Z,14.10
2017-10-05T11:59:59.235Z,14.30
2017-10-05T12:02:27.553Z,14.30
2017-10-05T12:04:55.899Z,14.50
2017-10-05T12:07:24.218Z,14.70
2017-10-05T12:09:52.588Z,14.90
2017-10-05T12:12:20.903Z,15.10
2017-10-05T12:14:48.488Z,15.20
2017-10-05T12:17:17.583Z,15.30
2017-10-05T12:19:46.683Z,15.40
2017-10-05T12:22:15.772Z,15.40
2017-10-05T12:24:44.106Z,15.40
2017-10-05T12:27:12.415Z,15.50
2017-10-05T12:29:40.702Z,15.60
2017-10-05T12:32:09.023Z,15.70
2017-10-05T12:34:37.336Z,15.70
2017-10-05T12:37:05.626Z,15.70
2017-10-05T12:39:33.950Z,15.70
2017-10-05T12:42:03.080Z,15.70
2017-10-05T12:44:31.399Z,15.80
2017-10-05T12:46:59.764Z,15.80
2017-10-05T12:49:28.066Z,15.80
2017-10-05T12:51:57.914Z,15.80
2017-10-05T12:54:26.985Z,15.90
2017-10-05T12:56:55.290Z,15.90
2017-10-05T12:59:24.375Z,16.00
2017-10-05T13:01:53.544Z,16.00
2017-10-05T13:04:21.930Z,16.10
2017-10-05T13:06:50.265Z,16.10
2017-10-05T13:09:18.584Z,16.20
2017-10-05T13:11:46.884Z,16.20
2017-10-05T13:14:15.182Z,16.20
2017-10-05T13:16:43.496Z,16.10
2017-10-05T13:19:11.824Z,16.00
2017-10-05T13:21:40.119Z,15.80
2017-10-05T13:24:08.425Z,15.60
2017-10-05T13:26:37.492Z,15.60
2017-10-05T13:29:05.899Z,15.60
2017-10-05T13:31:34.966Z,15.50
2017-10-05T13:34:03.299Z,15.50
2017-10-05T13:36:31.722Z,15.30
2017-10-05T13:39:00.064Z,15.00
2017-10-05T13:41:28.388Z,14.80
2017-10-05T13:43:56.706Z,14.50
2017-10-05T13:46:25.964Z,14.30
2017-10-05T13:48:54.347Z,14.30
2017-10-05T13:51:22.666Z,14.20
2017-10-05T13:53:51.728Z,14.20
2017-10-05T13:56:20.056Z,14.20
2017-10-05T13:58:49.142Z,14.20
2017-10-05T14:01:18.220Z,14.30
2017-10-05T14:03:46.596Z,14.30
2017-10-05T14:06:14.968Z,14.40
2017-10-05T14:08:43.294Z,14.50
2017-10-05T14:11:12.387Z,14.60
2017-10-05T14:13:40.699Z,14.50
2017-10-05T14:16:09.006Z,14.70
2017-10-05T14:18:37.338Z,14.70
2017-10-05T14:21:06.403Z,15.00
2017-10-05T14:23:34.740Z,15.00
2017-10-05T14:26:03.114Z,15.10
2017-10-05T14:28:31.484Z,15.20
2017-10-05T14:30:59.819Z,15.20
2017-10-05T14:33:28.126Z,15.30
2017-10-05T14:35:56.420Z,15.30
2017-10-05T14:38:25.627Z,15.30
2017-10-05T14:40:54.699Z,15.30
2017-10-05T14:43:22.992Z,15.30
2017-10-05T14:45:51.318Z,15.30
2017-10-05T14:48:19.619Z,15.30
2017-10-05T14:50:47.974Z,15.20
2017-10-05T14:53:16.286Z,15.20
2017-10-05T14:55:44.587Z,15.10
2017-10-05T14:58:12.892Z,15.10
2017-10-05T15:00:41.966Z,15.10
2017-10-05T15:03:10.310Z,15.00
2017-10-05T15:05:38.629Z,15.10
2017-10-05T15:08:06.932Z,15.10
2017-10-05T15:10:36.023Z,15.00
2017-10-05T15:13:05.157Z,14.80
2017-10-05T15:15:33.488Z,14.80
2017-10-05T15:18:01.790Z,14.70
2017-10-05T15:20:30.860Z,14.30
2017-10-05T15:22:59.185Z,14.30
2017-10-05T15:25:27.500Z,14.20
2017-10-05T15:27:55.838Z,14.10
2017-10-05T15:30:24.918Z,13.90
2017-10-05T15:32:54.024Z,13.90
2017-10-05T15:35:22.390Z,13.90
2017-10-05T15:37:50.685Z,13.90
2017-10-05T15:40:19.803Z,13.80
2017-10-05T15:42:49.010Z,13.80
2017-10-05T15:45:17.324Z,13.80
2017-10-05T15:47:45.698Z,13.90
2017-10-05T15:50:14.010Z,13.90
2017-10-05T15:52:42.322Z,13.90
2017-10-05T15:55:11.444Z,13.90
2017-10-05T15:57:39.768Z,13.90
2017-10-05T16:00:08.092Z,13.90
2017-10-05T16:02:36.395Z,14.00
2017-10-05T16:05:04.736Z,14.00
2017-10-05T16:07:33.044Z,14.00
2017-10-05T16:10:01.376Z,14.10
2017-10-05T16:12:29.694Z,14.10
2017-10-05T16:14:58.816Z,14.20
2017-10-05T16:17:27.124Z,14.20
2017-10-05T16:19:55.412Z,14.20
2017-10-05T16:22:23.724Z,14.20
2017-10-05T16:24:52.173Z,14.20
2017-10-05T16:27:20.491Z,14.20
2017-10-05T16:29:49.601Z,14.20
2017-10-05T16:32:18.692Z,14.20
2017-10-05T16:34:47.768Z,14.10
2017-10-05T16:37:16.076Z,14.10
2017-10-05T16:39:45.158Z,14.10
2017-10-05T16:42:13.444Z,14.00
2017-10-05T16:44:41.770Z,14.00
2017-10-05T16:47:10.077Z,14.00
2017-10-05T16:49:38.418Z,14.00
2017-10-05T16:52:06.737Z,13.90
2017-10-05T16:54:35.028Z,13.90
2017-10-05T16:57:03.367Z,13.90
2017-10-05T16:59:31.765Z,13.90
2017-10-05T17:02:00.063Z,13.90
2017-10-05T17:04:29.141Z,13.80
2017-10-05T17:06:57.475Z,13.90
2017-10-05T17:09:25.772Z,13.80
2017-10-05T17:11:54.846Z,13.80
2017-10-05T17:14:23.142Z,13.80
2017-10-05T17:16:52.197Z,13.70
2017-10-05T17:19:20.524Z,13.70
2017-10-05T17:21:49.578Z,13.70
2017-10-05T17:24:17.878Z,13.70
2017-10-05T17:26:46.967Z,13.70
2017-10-05T17:29:15.281Z,13.70
2017-10-05T17:31:44.373Z,13.60
2017-10-05T17:34:12.712Z,13.60
2017-10-05T17:36:41.025Z,13.60
2017-10-05T17:39:09.356Z,13.60
2017-10-05T17:41:37.658Z,13.50
2017-10-05T17:44:05.958Z,13.50
2017-10-05T17:46:34.296Z,13.50
2017-10-05T17:49:02.595Z,13.50
2017-10-05T17:51:31.025Z,13.50
2017-10-05T17:54:00.104Z,13.40
2017-10-05T17:56:28.427Z,13.40
2017-10-05T17:58:56.765Z,13.40
2017-10-05T18:01:25.067Z,13.40
2017-10-05T18:03:54.169Z,13.40
2017-10-05T18:06:23.227Z,13.40
2017-10-05T18:08:51.526Z,13.40
2017-10-05T18:11:19.838Z,13.40
2017-10-05T18:13:48.901Z,13.40
2017-10-05T18:16:17.312Z,13.40
2017-10-05T18:18:46.385Z,13.40
2017-10-05T18:21:14.683Z,13.30
2017-10-05T18:23:42.981Z,13.40
2017-10-05T18:26:11.316Z,13.30
2017-10-05T18:28:39.660Z,13.30
2017-10-05T18:31:07.960Z,13.40
2017-10-05T18:33:36.363Z,13.30
2017-10-05T18:36:04.660Z,13.40
2017-10-05T18:38:33.000Z,13.40
2017-10-05T18:41:01.316Z,13.40
2017-10-05T18:43:29.660Z,13.40
2017-10-05T18:45:58.207Z,13.40
2017-10-05T18:48:27.270Z,13.40
2017-10-05T18:50:55.566Z,13.40
2017-10-05T18:53:23.863Z,13.40
2017-10-05T18:55:52.952Z,13.40
2017-10-05T18:58:22.031Z,13.40
2017-10-05T19:00:50.335Z,13.30
2017-10-05T19:03:19.471Z,13.30
2017-10-05T19:05:47.764Z,13.30
2017-10-05T19:08:16.076Z,13.30
2017-10-05T19:10:44.393Z,13.30
2017-10-05T19:13:12.723Z,13.30
2017-10-05T19:15:41.028Z,13.30
2017-10-05T19:18:10.115Z,13.30
2017-10-05T19:20:38.413Z,13.30
2017-10-05T19:23:06.703Z,13.30
2017-10-05T19:25:35.779Z,13.30
2017-10-05T19:28:04.097Z,13.30
2017-10-05T19:30:33.185Z,13.30
2017-10-05T19:33:02.281Z,13.30
2017-10-05T19:35:31.366Z,13.30
2017-10-05T19:37:59.722Z,13.30
2017-10-05T19:40:28.037Z,13.30
2017-10-05T19:42:56.353Z,13.30
2017-10-05T19:45:24.652Z,13.30
2017-10-05T19:47:53.018Z,13.30
2017-10-05T19:50:21.321Z,13.30
2017-10-05T19:52:49.615Z,13.30
2017-10-05T19:55:17.928Z,13.30
2017-10-05T19:57:47.003Z,13.30
2017-10-05T20:00:15.321Z,13.30
2017-10-05T20:02:44.384Z,13.30
2017-10-05T20:05:12.700Z,13.20
2017-10-05T20:07:41.789Z,13.20
2017-10-05T20:10:10.883Z,13.20
2017-10-05T20:12:39.978Z,13.20
2017-10-05T20:15:08.322Z,13.20
2017-10-05T20:17:41.002Z,13.20
2017-10-05T20:26:25.021Z,13.20
2017-10-05T20:32:00.330Z,13.20
2017-10-05T20:34:28.656Z,13.20
2017-10-05T20:36:56.968Z,13.10
2017-10-05T20:39:25.343Z,13.10
2017-10-05T20:41:54.476Z,13.10
2017-10-05T20:44:22.904Z,13.10
2017-10-05T20:46:51.220Z,13.10
2017-10-05T20:49:19.526Z,13.10
2017-10-05T20:51:48.599Z,13.10
2017-10-05T20:54:16.918Z,13.00
2017-10-05T20:56:45.215Z,13.00
2017-10-05T20:59:13.518Z,13.00
2017-10-05T21:01:41.821Z,13.00
2017-10-05T21:04:10.121Z,13.00
2017-10-05T21:06:38.429Z,13.00
2017-10-05T21:09:06.782Z,13.00
2017-10-05T21:11:35.124Z,13.10
2017-10-05T21:14:03.448Z,13.00
2017-10-05T21:16:32.520Z,13.00
2017-10-05T21:19:00.830Z,13.00
2017-10-05T21:21:29.940Z,13.00
2017-10-05T21:23:59.055Z,13.00
2017-10-05T21:26:27.364Z,13.00
2017-10-05T21:28:55.698Z,13.00
2017-10-05T21:31:24.836Z,13.00
2017-10-05T21:33:53.132Z,13.00
2017-10-05T21:36:21.465Z,13.00
2017-10-05T21:38:50.568Z,13.00
2017-10-05T21:41:18.899Z,13.10
2017-10-05T21:43:47.243Z,13.00
2017-10-05T21:46:15.580Z,13.10
2017-10-05T21:48:43.945Z,13.00
2017-10-05T21:51:12.245Z,13.00
2017-10-05T21:53:40.624Z,13.00
2017-10-05T21:56:08.931Z,13.00
2017-10-05T21:58:38.085Z,13.00
2017-10-05T22:01:06.547Z,13.00
2017-10-05T22:03:35.011Z,13.00
2017-10-05T22:06:03.380Z,13.00
2017-10-05T22:08:32.596Z,13.00
2017-10-05T22:11:00.965Z,13.00
2017-10-05T22:13:30.088Z,13.00
2017-10-05T22:15:58.474Z,13.00
2017-10-05T22:18:26.828Z,13.00
2017-10-05T22:20:55.947Z,13.00
2017-10-05T22:23:24.317Z,13.00
2017-10-05T22:25:52.715Z,13.00
2017-10-05T22:28:21.104Z,13.00
2017-10-05T22:30:49.467Z,13.00
2017-10-05T22:33:18.606Z,13.10
2017-10-05T22:35:46.993Z,13.10
2017-10-05T22:38:15.345Z,13.10
2017-10-05T22:40:43.720Z,13.10
2017-10-05T22:43:12.126Z,13.10
2017-10-05T22:45:40.609Z,13.10
2017-10-05T22:48:08.996Z,13.10
2017-10-05T22:50:37.398Z,13.10
2017-10-05T22:53:05.876Z,13.10
2017-10-05T22:55:34.282Z,13.10
2017-10-05T22:58:02.710Z,13.10
2017-10-05T23:00:31.079Z,13.10
2017-10-05T23:02:59.443Z,13.20
2017-10-05T23:05:28.583Z,13.10
2017-10-05T23:07:56.933Z,13.10
2017-10-05T23:10:26.054Z,12.80
2017-10-05T23:12:55.076Z,12.80
2017-10-05T23:15:23.649Z,12.70
2017-10-05T23:17:52.032Z,12.60
2017-10-05T23:20:20.398Z,12.50
2017-10-05T23:22:48.783Z,12.50
2017-10-05T23:25:17.210Z,12.50
2017-10-05T23:27:45.571Z,12.40
2017-10-05T23:30:13.928Z,12.40
2017-10-05T23:32:42.308Z,12.30
2017-10-05T23:35:10.688Z,12.20
2017-10-05T23:37:39.812Z,12.10
2017-10-05T23:40:08.163Z,12.10
2017-10-05T23:42:37.288Z,12.10
2017-10-05T23:45:05.760Z,12.10
2017-10-05T23:47:34.991Z,12.00
2017-10-05T23:50:03.424Z,12.00
2017-10-05T23:52:32.561Z,12.10
2017-10-05T23:55:00.938Z,12.10
2017-10-05T23:57:29.324Z,12.10
2017-10-05T23:59:57.675Z,12.10
